createdAt,value
2018-12-13T00:00:16.477Z,12.80
2018-12-13T00:01:16.440Z,15.00
2018-12-13T00:02:16.409Z,16.20
2018-12-13T00:03:16.372Z,14.60
2018-12-13T00:04:16.336Z,17.20
2018-12-13T00:05:16.299Z,13.60
2018-12-13T00:06:16.266Z,14.90
2018-12-13T00:07:16.229Z,15.20
2018-12-13T00:08:16.196Z,14.10
2018-12-13T00:09:16.159Z,16.80
2018-12-13T00:10:16.127Z,15.30
2018-12-13T00:11:16.088Z,13.40
2018-12-13T00:12:16.055Z,12.90
2018-12-13T00:13:16.019Z,13.40
2018-12-13T00:14:15.985Z,13.20
2018-12-13T00:15:15.949Z,12.90
2018-12-13T00:16:15.914Z,12.40
2018-12-13T00:17:15.879Z,15.00
2018-12-13T00:18:15.843Z,16.30
2018-12-13T00:19:15.809Z,15.50
2018-12-13T00:20:15.774Z,14.90
2018-12-13T00:21:15.736Z,14.30
2018-12-13T00:22:15.702Z,13.70
2018-12-13T00:23:15.667Z,13.30
2018-12-13T00:24:15.632Z,15.40
2018-12-13T00:25:15.597Z,14.70
2018-12-13T00:26:15.563Z,13.00
2018-12-13T00:27:15.528Z,13.70
2018-12-13T00:28:15.493Z,15.10
2018-12-13T00:29:15.457Z,14.30
2018-12-13T00:30:15.422Z,16.80
2018-12-13T00:31:15.388Z,13.40
2018-12-13T00:32:15.352Z,13.70
2018-12-13T00:33:15.316Z,14.60
2018-12-13T00:34:15.282Z,13.30
2018-12-13T00:35:15.248Z,15.00
2018-12-13T00:36:15.214Z,12.10
2018-12-13T00:37:15.178Z,15.40
2018-12-13T00:38:15.143Z,14.40
2018-12-13T00:39:15.108Z,13.60
2018-12-13T00:40:15.074Z,12.70
2018-12-13T00:41:15.037Z,13.00
2018-12-13T00:42:15.003Z,14.40
2018-12-13T00:43:14.967Z,15.60
2018-12-13T00:44:14.936Z,12.60
2018-12-13T00:45:14.905Z,12.00
2018-12-13T00:46:14.863Z,13.50
2018-12-13T00:47:14.827Z,11.50
2018-12-13T00:48:14.793Z,11.30
2018-12-13T00:49:14.757Z,13.60
2018-12-13T00:50:14.724Z,13.50
2018-12-13T00:51:14.689Z,13.70
2018-12-13T00:52:14.654Z,12.10
2018-12-13T00:53:14.617Z,12.90
2018-12-13T00:54:14.583Z,13.40
2018-12-13T00:55:14.551Z,14.50
2018-12-13T00:56:14.515Z,13.70
2018-12-13T00:57:14.481Z,12.60
2018-12-13T00:58:14.445Z,12.40
2018-12-13T00:59:14.411Z,12.10
2018-12-13T01:00:14.376Z,12.10
2018-12-13T01:01:14.339Z,14.30
2018-12-13T01:02:14.306Z,12.30
2018-12-13T01:03:14.270Z,10.70
2018-12-13T01:04:14.236Z,12.40
2018-12-13T01:05:14.201Z,11.70
2018-12-13T01:06:14.164Z,12.50
2018-12-13T01:07:14.132Z,11.70
2018-12-13T01:08:14.097Z,11.50
2018-12-13T01:09:14.062Z,12.50
2018-12-13T01:10:14.026Z,10.10
2018-12-13T01:11:13.997Z,10.30
2018-12-13T01:12:13.956Z,11.10
2018-12-13T01:13:13.921Z,12.70
2018-12-13T01:14:13.889Z,10.20
2018-12-13T01:15:13.853Z,11.40
2018-12-13T01:16:13.818Z,13.70
2018-12-13T01:17:13.784Z,11.70
2018-12-13T01:18:13.748Z,12.10
2018-12-13T01:19:13.714Z,13.80
2018-12-13T01:20:13.680Z,11.90
2018-12-13T01:21:13.644Z,12.10
2018-12-13T01:22:13.609Z,11.50
2018-12-13T01:23:13.575Z,10.80
2018-12-13T01:24:13.541Z,10.50
2018-12-13T01:25:13.504Z,10.30
2018-12-13T01:26:13.470Z,11.20
2018-12-13T01:27:13.436Z,12.50
2018-12-13T01:28:13.402Z,9.60
2018-12-13T01:29:13.368Z,11.70
2018-12-13T01:30:13.332Z,12.50
2018-12-13T01:31:13.299Z,14.70
2018-12-13T01:32:13.263Z,11.30
2018-12-13T01:33:13.227Z,10.10
2018-12-13T01:34:13.194Z,10.10
2018-12-13T01:35:13.160Z,13.80
2018-12-13T01:36:13.126Z,12.80
2018-12-13T01:37:13.090Z,11.60
2018-12-13T01:38:13.057Z,12.40
2018-12-13T01:39:13.020Z,9.90
2018-12-13T01:40:12.986Z,12.40
2018-12-13T01:41:12.950Z,12.60
2018-12-13T01:42:12.917Z,11.20
2018-12-13T01:43:12.882Z,10.10
2018-12-13T01:44:12.848Z,11.90
2018-12-13T01:45:12.813Z,10.20
2018-12-13T01:46:12.778Z,10.30
2018-12-13T01:47:12.745Z,11.80
2018-12-13T01:48:12.710Z,12.90
2018-12-13T01:49:12.675Z,12.10
2018-12-13T01:50:12.641Z,11.40
2018-12-13T01:51:12.606Z,12.20
2018-12-13T01:52:12.572Z,13.40
2018-12-13T01:53:12.536Z,11.50
2018-12-13T01:54:12.503Z,11.60
2018-12-13T01:55:12.468Z,14.30
2018-12-13T01:56:12.433Z,14.90
2018-12-13T01:57:12.399Z,13.50
2018-12-13T01:58:12.365Z,13.00
2018-12-13T01:59:12.329Z,14.90
2018-12-13T02:00:12.296Z,12.00
2018-12-13T02:01:12.261Z,13.40
2018-12-13T02:02:12.225Z,13.10
2018-12-13T02:03:12.195Z,13.20
2018-12-13T02:04:12.159Z,12.10
2018-12-13T02:05:12.122Z,14.40
2018-12-13T02:06:12.088Z,11.60
2018-12-13T02:07:12.090Z,12.30
2018-12-13T02:08:12.019Z,9.50
2018-12-13T02:09:11.983Z,14.20
2018-12-13T02:10:11.952Z,13.20
2018-12-13T02:11:11.918Z,12.90
2018-12-13T02:12:11.882Z,10.30
2018-12-13T02:13:11.847Z,11.30
2018-12-13T02:14:11.811Z,10.00
2018-12-13T02:15:11.778Z,11.50
2018-12-13T02:16:11.744Z,11.00
2018-12-13T02:17:11.709Z,10.90
2018-12-13T02:18:11.675Z,11.80
2018-12-13T02:19:11.641Z,10.40
2018-12-13T02:20:11.608Z,10.80
2018-12-13T02:21:11.570Z,9.10
2018-12-13T02:22:11.540Z,11.30
2018-12-13T02:23:11.501Z,9.10
2018-12-13T02:24:11.467Z,9.50
2018-12-13T02:25:11.432Z,13.30
2018-12-13T02:26:11.401Z,11.30
2018-12-13T02:27:11.363Z,9.70
2018-12-13T02:28:11.330Z,10.90
2018-12-13T02:29:11.297Z,10.40
2018-12-13T02:30:11.261Z,12.70
2018-12-13T02:31:11.226Z,13.00
2018-12-13T02:32:11.192Z,9.90
2018-12-13T02:33:11.156Z,11.00
2018-12-13T02:34:11.120Z,11.90
2018-12-13T02:35:11.088Z,10.60
2018-12-13T02:36:11.054Z,14.10
2018-12-13T02:37:11.021Z,9.70
2018-12-13T02:38:10.984Z,11.10
2018-12-13T02:39:10.949Z,14.40
2018-12-13T02:40:10.915Z,11.30
2018-12-13T02:41:10.885Z,10.70
2018-12-13T02:42:10.845Z,12.10
2018-12-13T02:43:10.811Z,9.20
2018-12-13T02:44:10.782Z,10.60
2018-12-13T02:45:10.741Z,10.50
2018-12-13T02:46:10.708Z,9.40
2018-12-13T02:47:10.673Z,9.60
2018-12-13T02:48:10.639Z,9.30
2018-12-13T02:49:10.605Z,10.60
2018-12-13T02:50:10.571Z,11.20
2018-12-13T02:51:10.535Z,11.70
2018-12-13T02:52:10.499Z,10.00
2018-12-13T02:53:10.466Z,12.00
2018-12-13T02:54:10.432Z,12.00
2018-12-13T02:55:10.396Z,10.30
2018-12-13T02:56:10.361Z,11.80
2018-12-13T02:57:10.326Z,12.60
2018-12-13T02:58:10.294Z,11.40
2018-12-13T02:59:10.258Z,14.90
2018-12-13T03:00:10.221Z,10.40
2018-12-13T03:01:10.187Z,11.40
2018-12-13T03:02:10.155Z,12.00
2018-12-13T03:03:10.122Z,11.30
2018-12-13T03:04:10.083Z,12.20
2018-12-13T03:05:10.049Z,10.10
2018-12-13T03:06:10.015Z,11.00
2018-12-13T03:07:13.824Z,11.70
2018-12-13T03:08:09.945Z,11.20
2018-12-13T03:09:09.912Z,9.60
2018-12-13T03:10:09.879Z,10.90
2018-12-13T03:11:09.842Z,10.80
2018-12-13T03:12:09.808Z,12.30
2018-12-13T03:13:09.781Z,11.10
2018-12-13T03:14:09.741Z,13.70
2018-12-13T03:15:09.704Z,9.50
2018-12-13T03:16:09.669Z,11.30
2018-12-13T03:17:09.633Z,9.60
2018-12-13T03:18:09.599Z,12.00
2018-12-13T03:19:09.564Z,10.40
2018-12-13T03:20:09.546Z,9.70
2018-12-13T03:21:09.495Z,9.30
2018-12-13T03:22:09.459Z,10.30
2018-12-13T03:23:09.430Z,9.40
2018-12-13T03:24:09.392Z,8.50
2018-12-13T03:25:09.356Z,10.20
2018-12-13T03:26:09.325Z,9.70
2018-12-13T03:27:09.289Z,9.80
2018-12-13T03:28:09.253Z,11.80
2018-12-13T03:29:09.216Z,9.70
2018-12-13T03:30:09.193Z,9.00
2018-12-13T03:31:09.151Z,10.10
2018-12-13T03:32:09.117Z,8.60
2018-12-13T03:33:09.079Z,10.50
2018-12-13T03:34:09.049Z,8.20
2018-12-13T03:35:09.010Z,9.40
2018-12-13T03:36:08.975Z,9.50
2018-12-13T03:37:08.941Z,8.90
2018-12-13T03:38:08.913Z,8.00
2018-12-13T03:39:08.872Z,7.60
2018-12-13T03:40:08.841Z,11.00
2018-12-13T03:41:08.804Z,10.70
2018-12-13T03:42:08.768Z,9.60
2018-12-13T03:43:08.733Z,12.40
2018-12-13T03:44:08.706Z,11.20
2018-12-13T03:45:08.665Z,10.30
2018-12-13T03:46:08.630Z,10.00
2018-12-13T03:47:08.596Z,9.50
2018-12-13T03:48:08.562Z,9.50
2018-12-13T03:49:08.526Z,9.80
2018-12-13T03:50:08.492Z,8.50
2018-12-13T03:51:08.458Z,10.20
2018-12-13T03:52:08.422Z,10.10
2018-12-13T03:53:08.442Z,10.10
2018-12-13T03:54:08.353Z,10.60
2018-12-13T03:55:08.323Z,9.10
2018-12-13T03:56:08.286Z,10.90
2018-12-13T03:57:08.249Z,9.40
2018-12-13T03:58:08.216Z,9.40
2018-12-13T03:59:08.182Z,11.00
2018-12-13T04:00:08.147Z,11.10
2018-12-13T04:01:08.112Z,9.40
2018-12-13T04:02:08.079Z,8.90
2018-12-13T04:03:08.044Z,7.90
2018-12-13T04:04:08.012Z,9.50
2018-12-13T04:05:07.974Z,6.60
2018-12-13T04:06:07.941Z,7.20
2018-12-13T04:07:07.917Z,5.40
2018-12-13T04:08:07.871Z,6.80
2018-12-13T04:09:07.837Z,5.80
2018-12-13T04:10:07.800Z,7.50
2018-12-13T04:11:07.776Z,7.60
2018-12-13T04:12:07.733Z,6.50
2018-12-13T04:13:07.697Z,5.80
2018-12-13T04:14:07.670Z,7.40
2018-12-13T04:15:07.630Z,5.70
2018-12-13T04:16:07.593Z,7.30
2018-12-13T04:17:07.560Z,6.50
2018-12-13T04:18:07.524Z,6.60
2018-12-13T04:19:07.489Z,5.70
2018-12-13T04:20:07.453Z,7.20
2018-12-13T04:21:07.421Z,5.60
2018-12-13T04:22:07.385Z,6.20
2018-12-13T04:23:07.351Z,5.90
2018-12-13T04:24:07.328Z,5.20
2018-12-13T04:25:07.278Z,5.40
2018-12-13T04:26:07.246Z,6.40
2018-12-13T04:27:07.209Z,5.00
2018-12-13T04:28:07.174Z,6.10
2018-12-13T04:29:07.142Z,5.50
2018-12-13T04:30:07.105Z,5.90
2018-12-13T04:31:07.069Z,5.30
2018-12-13T04:32:07.035Z,5.70
2018-12-13T04:33:07.004Z,5.60
2018-12-13T04:34:06.966Z,4.90
2018-12-13T04:35:06.931Z,4.70
2018-12-13T04:36:06.898Z,4.90
2018-12-13T04:37:06.859Z,6.60
2018-12-13T04:38:06.826Z,4.80
2018-12-13T04:39:06.801Z,5.30
2018-12-13T04:40:06.756Z,6.40
2018-12-13T04:41:06.719Z,5.40
2018-12-13T04:42:06.690Z,5.10
2018-12-13T04:43:06.651Z,6.10
2018-12-13T04:44:06.616Z,5.80
2018-12-13T04:45:06.581Z,4.80
2018-12-13T04:46:06.545Z,5.50
2018-12-13T04:47:06.513Z,4.80
2018-12-13T04:48:06.476Z,5.90
2018-12-13T04:49:06.550Z,4.50
2018-12-13T04:50:06.406Z,5.20
2018-12-13T04:51:06.375Z,5.40
2018-12-13T04:52:06.337Z,5.00
2018-12-13T04:53:06.301Z,4.80
2018-12-13T04:54:06.269Z,5.10
2018-12-13T04:55:06.231Z,5.20
2018-12-13T04:56:06.200Z,5.70
2018-12-13T04:57:06.161Z,4.40
2018-12-13T04:58:06.128Z,4.60
2018-12-13T04:59:06.091Z,5.00
2018-12-13T05:00:06.057Z,4.40
2018-12-13T05:01:06.023Z,5.10
2018-12-13T05:02:05.985Z,5.50
2018-12-13T05:03:05.951Z,4.70
2018-12-13T05:04:05.915Z,4.00
2018-12-13T05:05:05.883Z,4.40
2018-12-13T05:06:05.845Z,5.50
2018-12-13T05:07:05.810Z,5.20
2018-12-13T05:08:05.776Z,4.70
2018-12-13T05:09:05.738Z,4.40
2018-12-13T05:10:05.703Z,5.00
2018-12-13T05:11:05.669Z,6.30
2018-12-13T05:12:05.636Z,4.40
2018-12-13T05:13:05.598Z,3.60
2018-12-13T05:14:05.564Z,3.80
2018-12-13T05:15:05.527Z,4.00
2018-12-13T05:16:05.492Z,3.90
2018-12-13T05:17:05.459Z,4.40
2018-12-13T05:18:05.422Z,3.40
2018-12-13T05:19:05.388Z,4.60
2018-12-13T05:20:05.353Z,5.30
2018-12-13T05:21:05.316Z,4.60
2018-12-13T05:22:05.281Z,5.50
2018-12-13T05:23:05.247Z,4.00
2018-12-13T05:24:05.213Z,4.90
2018-12-13T05:25:05.177Z,4.30
2018-12-13T05:26:05.141Z,7.10
2018-12-13T05:27:05.105Z,5.50
2018-12-13T05:28:05.072Z,4.60
2018-12-13T05:29:05.036Z,4.70
2018-12-13T05:30:05.001Z,5.70
2018-12-13T05:31:04.964Z,5.80
2018-12-13T05:32:04.931Z,5.80
2018-12-13T05:33:04.897Z,6.00
2018-12-13T05:34:04.859Z,4.30
2018-12-13T05:35:04.826Z,4.30
2018-12-13T05:36:04.789Z,4.80
2018-12-13T05:37:04.753Z,4.70
2018-12-13T05:38:04.719Z,4.70
2018-12-13T05:39:04.684Z,4.50
2018-12-13T05:40:04.648Z,6.10
2018-12-13T05:41:04.612Z,5.50
2018-12-13T05:42:04.577Z,4.70
2018-12-13T05:43:04.544Z,4.80
2018-12-13T05:44:04.508Z,6.70
2018-12-13T05:45:04.472Z,4.80
2018-12-13T05:46:04.439Z,5.20
2018-12-13T05:47:04.401Z,6.60
2018-12-13T05:48:04.368Z,5.80
2018-12-13T05:49:04.332Z,5.30
2018-12-13T05:50:04.296Z,5.20
2018-12-13T05:51:04.263Z,5.80
2018-12-13T05:52:04.226Z,5.50
2018-12-13T05:53:04.191Z,6.60
2018-12-13T05:54:04.157Z,5.80
2018-12-13T05:55:04.122Z,4.80
2018-12-13T05:56:04.086Z,8.30
2018-12-13T05:57:04.051Z,4.00
2018-12-13T05:58:04.016Z,4.60
2018-12-13T05:59:03.980Z,5.90
2018-12-13T06:00:03.946Z,3.90
2018-12-13T06:01:03.911Z,4.60
2018-12-13T06:02:03.874Z,6.50
2018-12-13T06:03:03.839Z,4.70
2018-12-13T06:04:03.806Z,5.30
2018-12-13T06:05:03.769Z,7.40
2018-12-13T06:06:03.735Z,7.50
2018-12-13T06:07:03.704Z,4.40
2018-12-13T06:08:03.665Z,6.50
2018-12-13T06:09:03.628Z,5.30
2018-12-13T06:10:03.594Z,5.50
2018-12-13T06:11:03.559Z,6.20
2018-12-13T06:12:03.523Z,5.20
2018-12-13T06:13:03.488Z,6.20
2018-12-13T06:14:03.452Z,5.30
2018-12-13T06:15:03.418Z,7.50
2018-12-13T06:16:03.387Z,6.20
2018-12-13T06:17:03.349Z,7.60
2018-12-13T06:18:06.832Z,5.80
2018-12-13T06:19:03.278Z,6.90
2018-12-13T06:20:03.243Z,7.70
2018-12-13T06:21:03.205Z,7.70
2018-12-13T06:22:03.172Z,6.80
2018-12-13T06:23:03.137Z,5.30
2018-12-13T06:24:03.101Z,8.60
2018-12-13T06:25:03.070Z,6.50
2018-12-13T06:26:03.030Z,6.50
2018-12-13T06:27:02.997Z,8.60
2018-12-13T06:28:02.961Z,8.10
2018-12-13T06:29:02.923Z,7.90
2018-12-13T06:30:07.454Z,7.20
2018-12-13T06:31:02.855Z,8.40
2018-12-13T06:32:02.818Z,7.40
2018-12-13T06:33:02.788Z,5.90
2018-12-13T06:34:02.747Z,5.60
2018-12-13T06:35:02.716Z,6.10
2018-12-13T06:36:02.677Z,7.30
2018-12-13T06:37:02.639Z,8.60
2018-12-13T06:38:02.606Z,7.90
2018-12-13T06:39:02.569Z,6.00
2018-12-13T06:40:02.536Z,7.20
2018-12-13T06:41:02.497Z,6.10
2018-12-13T06:42:02.464Z,7.20
2018-12-13T06:43:02.426Z,9.50
2018-12-13T06:44:02.394Z,8.10
2018-12-13T06:45:02.355Z,6.70
2018-12-13T06:46:03.738Z,6.90
2018-12-13T06:47:02.284Z,5.40
2018-12-13T06:48:02.248Z,7.30
2018-12-13T06:49:02.211Z,7.10
2018-12-13T06:50:02.176Z,7.00
2018-12-13T06:51:02.440Z,8.20
2018-12-13T06:52:02.105Z,8.00
2018-12-13T06:53:02.067Z,7.50
2018-12-13T06:54:02.032Z,8.80
2018-12-13T06:55:01.997Z,6.70
2018-12-13T06:56:01.960Z,6.90
2018-12-13T06:57:01.924Z,6.90
2018-12-13T06:58:01.889Z,9.70
2018-12-13T06:59:01.852Z,7.50
2018-12-13T07:00:01.816Z,8.70
2018-12-13T07:01:01.780Z,8.50
2018-12-13T07:02:01.746Z,7.80
2018-12-13T07:03:01.710Z,7.30
2018-12-13T07:04:01.673Z,8.10
2018-12-13T07:05:01.642Z,9.90
2018-12-13T07:06:01.600Z,7.80
2018-12-13T07:07:01.564Z,8.60
2018-12-13T07:08:07.620Z,14.90
2018-12-13T07:09:01.493Z,13.40
2018-12-13T07:10:01.457Z,11.90
2018-12-13T07:11:01.421Z,10.60
2018-12-13T07:12:01.385Z,7.90
2018-12-13T07:13:01.349Z,8.60
2018-12-13T07:14:01.316Z,8.80
2018-12-13T07:15:01.290Z,8.50
2018-12-13T07:16:01.243Z,14.00
2018-12-13T07:17:01.205Z,19.20
2018-12-13T07:18:01.173Z,13.00
2018-12-13T07:19:01.135Z,14.70
2018-12-13T07:20:01.101Z,19.00
2018-12-13T07:21:01.063Z,23.90
2018-12-13T07:22:01.029Z,21.80
2018-12-13T07:23:00.993Z,31.20
2018-12-13T07:24:00.955Z,30.90
2018-12-13T07:25:00.921Z,21.80
2018-12-13T07:26:00.888Z,27.20
2018-12-13T07:27:00.853Z,24.60
2018-12-13T07:28:00.822Z,24.80
2018-12-13T07:29:00.778Z,17.60
2018-12-13T07:30:00.742Z,18.60
2018-12-13T07:31:00.707Z,15.00
2018-12-13T07:32:00.671Z,12.00
2018-12-13T07:33:00.633Z,11.40
2018-12-13T07:34:00.600Z,11.60
2018-12-13T07:35:01.374Z,9.80
2018-12-13T07:36:00.528Z,11.50
2018-12-13T07:37:00.492Z,13.20
2018-12-13T07:38:00.454Z,13.40
2018-12-13T07:39:00.419Z,17.10
2018-12-13T07:40:00.382Z,15.10
2018-12-13T07:41:00.347Z,14.20
2018-12-13T07:42:00.310Z,14.20
2018-12-13T07:43:00.273Z,18.10
2018-12-13T07:44:00.237Z,14.10
2018-12-13T07:45:00.201Z,13.60
2018-12-13T07:46:00.167Z,14.00
2018-12-13T07:47:00.129Z,13.00
2018-12-13T07:48:00.093Z,13.60
2018-12-13T07:49:00.056Z,15.50
2018-12-13T07:50:00.022Z,15.90
2018-12-13T07:50:59.985Z,14.90
2018-12-13T07:51:59.949Z,14.70
2018-12-13T07:52:59.912Z,15.00
2018-12-13T07:53:59.876Z,15.30
2018-12-13T07:54:59.839Z,17.00
2018-12-13T07:55:59.804Z,19.10
2018-12-13T07:56:59.767Z,17.70
2018-12-13T07:57:59.730Z,20.20
2018-12-13T07:58:59.697Z,19.80
2018-12-13T07:59:59.658Z,20.20
2018-12-13T08:00:59.623Z,14.50
2018-12-13T08:01:59.585Z,15.20
2018-12-13T08:02:59.549Z,13.80
2018-12-13T08:03:59.515Z,13.50
2018-12-13T08:04:59.477Z,12.50
2018-12-13T08:05:59.441Z,13.30
2018-12-13T08:06:59.405Z,12.60
2018-12-13T08:07:59.368Z,12.40
2018-12-13T08:08:59.332Z,11.40
2018-12-13T08:09:59.296Z,11.10
2018-12-13T08:10:59.259Z,10.90
2018-12-13T08:11:59.225Z,12.70
2018-12-13T08:12:59.188Z,11.80
2018-12-13T08:13:59.152Z,12.90
2018-12-13T08:14:59.115Z,11.10
2018-12-13T08:15:59.080Z,11.30
2018-12-13T08:16:59.043Z,11.00
2018-12-13T08:17:59.008Z,9.70
2018-12-13T08:18:58.974Z,12.00
2018-12-13T08:19:58.937Z,11.30
2018-12-13T08:20:58.901Z,12.50
2018-12-13T08:21:58.864Z,13.60
2018-12-13T08:22:58.830Z,13.60
2018-12-13T08:23:58.794Z,12.60
2018-12-13T08:24:58.758Z,13.10
2018-12-13T08:25:58.723Z,10.60
2018-12-13T08:26:58.687Z,11.10
2018-12-13T08:27:58.650Z,10.20
2018-12-13T08:28:58.613Z,11.10
2018-12-13T08:29:58.579Z,9.70
2018-12-13T08:30:58.542Z,10.50
2018-12-13T08:31:58.509Z,11.00
2018-12-13T08:32:58.471Z,9.80
2018-12-13T08:33:58.436Z,7.10
2018-12-13T08:34:58.401Z,10.60
2018-12-13T08:35:58.366Z,6.50
2018-12-13T08:36:58.328Z,9.40
2018-12-13T08:37:58.293Z,7.30
2018-12-13T08:38:58.259Z,8.50
2018-12-13T08:39:58.224Z,7.40
2018-12-13T08:40:58.190Z,7.70
2018-12-13T08:41:58.152Z,8.60
2018-12-13T08:42:58.117Z,8.10
2018-12-13T08:43:58.085Z,6.50
2018-12-13T08:44:58.050Z,6.20
2018-12-13T08:45:58.012Z,6.80
2018-12-13T08:46:57.977Z,8.40
2018-12-13T08:47:57.941Z,7.70
2018-12-13T08:48:57.904Z,8.60
2018-12-13T08:49:57.870Z,8.00
2018-12-13T08:50:57.837Z,10.60
2018-12-13T08:51:57.806Z,9.50
2018-12-13T08:52:57.766Z,9.20
2018-12-13T08:53:57.730Z,9.80
2018-12-13T08:54:57.694Z,9.30
2018-12-13T08:55:57.663Z,10.80
2018-12-13T08:56:57.626Z,9.70
2018-12-13T08:57:57.589Z,10.20
2018-12-13T08:58:57.554Z,10.80
2018-12-13T08:59:57.522Z,12.00
2018-12-13T09:00:57.483Z,10.90
2018-12-13T09:01:57.449Z,11.30
2018-12-13T09:02:57.417Z,10.70
2018-12-13T09:03:57.380Z,13.30
2018-12-13T09:04:57.343Z,15.00
2018-12-13T09:05:57.308Z,13.80
2018-12-13T09:06:57.273Z,15.40
2018-12-13T09:07:57.238Z,13.30
2018-12-13T09:08:57.203Z,12.60
2018-12-13T09:09:57.170Z,11.10
2018-12-13T09:10:57.136Z,11.40
2018-12-13T09:11:57.099Z,9.30
2018-12-13T09:12:57.066Z,8.60
2018-12-13T09:13:57.028Z,9.70
2018-12-13T09:14:56.994Z,10.30
2018-12-13T09:15:56.960Z,8.70
2018-12-13T09:16:56.923Z,8.20
2018-12-13T09:17:56.888Z,8.90
2018-12-13T09:18:56.854Z,7.20
2018-12-13T09:19:56.820Z,8.00
2018-12-13T09:20:56.783Z,8.90
2018-12-13T09:21:56.748Z,10.00
2018-12-13T09:22:56.713Z,10.30
2018-12-13T09:23:56.679Z,11.10
2018-12-13T09:24:56.645Z,9.40
2018-12-13T09:25:56.611Z,10.50
2018-12-13T09:26:56.574Z,10.10
2018-12-13T09:27:56.540Z,9.80
2018-12-13T09:28:56.504Z,10.50
2018-12-13T09:29:56.470Z,10.90
2018-12-13T09:30:56.434Z,11.10
2018-12-13T09:31:56.400Z,8.40
2018-12-13T09:32:56.364Z,8.30
2018-12-13T09:33:56.330Z,9.00
2018-12-13T09:34:56.296Z,9.90
2018-12-13T09:35:56.263Z,10.20
2018-12-13T09:36:56.227Z,9.50
2018-12-13T09:37:56.190Z,8.60
2018-12-13T09:38:56.160Z,8.20
2018-12-13T09:39:56.123Z,9.80
2018-12-13T09:40:56.085Z,12.70
2018-12-13T09:41:56.051Z,11.80
2018-12-13T09:42:56.018Z,9.90
2018-12-13T09:43:55.982Z,8.70
2018-12-13T09:44:55.948Z,9.50
2018-12-13T09:45:55.911Z,9.40
2018-12-13T09:46:55.883Z,10.70
2018-12-13T09:47:55.842Z,11.00
2018-12-13T09:48:55.809Z,11.20
2018-12-13T09:49:55.833Z,10.70
2018-12-13T09:50:55.739Z,11.30
2018-12-13T09:51:55.704Z,9.40
2018-12-13T09:52:55.669Z,9.20
2018-12-13T09:53:55.634Z,10.50
2018-12-13T09:54:55.600Z,10.80
2018-12-13T09:55:55.566Z,7.10
2018-12-13T09:56:55.531Z,7.60
2018-12-13T09:57:55.495Z,6.50
2018-12-13T09:58:55.468Z,9.20
2018-12-13T09:59:55.426Z,7.00
2018-12-13T10:00:55.389Z,8.00
2018-12-13T10:01:55.357Z,7.70
2018-12-13T10:02:55.323Z,6.90
2018-12-13T10:03:55.288Z,6.40
2018-12-13T10:04:55.254Z,6.80
2018-12-13T10:05:55.219Z,5.70
2018-12-13T10:06:55.183Z,5.20
2018-12-13T10:07:55.150Z,8.10
2018-12-13T10:08:55.120Z,6.60
2018-12-13T10:09:55.081Z,7.70
2018-12-13T10:10:55.045Z,7.10
2018-12-13T10:11:55.011Z,6.80
2018-12-13T10:12:54.976Z,6.60
2018-12-13T10:13:54.945Z,9.10
2018-12-13T10:14:54.907Z,8.90
2018-12-13T10:15:54.873Z,8.00
2018-12-13T10:16:54.839Z,7.00
2018-12-13T10:17:54.806Z,5.40
2018-12-13T10:18:54.770Z,7.30
2018-12-13T10:19:54.740Z,5.30
2018-12-13T10:20:54.701Z,6.40
2018-12-13T10:21:54.665Z,5.30
2018-12-13T10:22:54.631Z,6.80
2018-12-13T10:23:54.597Z,5.70
2018-12-13T10:24:54.561Z,6.10
2018-12-13T10:25:59.483Z,7.70
2018-12-13T10:26:54.496Z,6.60
2018-12-13T10:27:54.459Z,8.10
2018-12-13T10:28:54.425Z,7.60
2018-12-13T10:29:54.390Z,5.10
2018-12-13T10:30:54.355Z,6.60
2018-12-13T10:31:54.319Z,10.00
2018-12-13T10:32:54.288Z,8.40
2018-12-13T10:33:54.250Z,6.80
2018-12-13T10:34:54.216Z,8.40
2018-12-13T10:35:54.188Z,6.60
2018-12-13T10:36:54.145Z,10.90
2018-12-13T10:37:54.117Z,8.80
2018-12-13T10:38:54.082Z,13.80
2018-12-13T10:39:54.041Z,8.10
2018-12-13T10:40:54.007Z,7.60
2018-12-13T10:41:53.970Z,8.40
2018-12-13T10:42:53.937Z,5.50
2018-12-13T10:43:53.905Z,7.20
2018-12-13T10:44:53.866Z,5.70
2018-12-13T10:45:53.833Z,7.10
2018-12-13T10:46:54.219Z,6.60
2018-12-13T10:47:53.770Z,6.40
2018-12-13T10:48:53.729Z,5.90
2018-12-13T10:49:53.694Z,9.60
2018-12-13T10:50:53.661Z,8.00
2018-12-13T10:51:53.625Z,6.90
2018-12-13T10:52:53.589Z,7.10
2018-12-13T10:53:53.608Z,6.60
2018-12-13T10:54:53.521Z,6.80
2018-12-13T10:55:53.486Z,6.10
2018-12-13T10:56:53.452Z,7.30
2018-12-13T10:57:53.418Z,6.70
2018-12-13T10:58:53.382Z,6.90
2018-12-13T10:59:53.347Z,7.20
2018-12-13T11:00:53.315Z,6.70
2018-12-13T11:01:53.277Z,6.70
2018-12-13T11:02:53.244Z,6.50
2018-12-13T11:03:53.211Z,6.60
2018-12-13T11:04:53.173Z,7.60
2018-12-13T11:05:53.144Z,5.80
2018-12-13T11:06:53.106Z,6.10
2018-12-13T11:07:53.070Z,9.70
2018-12-13T11:08:59.251Z,6.80
2018-12-13T11:09:53.002Z,16.20
2018-12-13T11:10:52.969Z,19.40
2018-12-13T11:11:52.933Z,13.40
2018-12-13T11:12:52.896Z,9.30
2018-12-13T11:13:52.863Z,11.60
2018-12-13T11:14:52.829Z,12.70
2018-12-13T11:15:52.794Z,11.20
2018-12-13T11:16:52.758Z,14.80
2018-12-13T11:17:52.724Z,14.90
2018-12-13T11:18:52.688Z,9.70
2018-12-13T11:19:52.654Z,9.10
2018-12-13T11:20:52.620Z,11.70
2018-12-13T11:21:52.585Z,11.60
2018-12-13T11:22:52.552Z,10.50
2018-12-13T11:23:52.518Z,10.50
2018-12-13T11:24:52.482Z,12.50
2018-12-13T11:25:52.447Z,10.70
2018-12-13T11:26:52.415Z,9.30
2018-12-13T11:27:52.378Z,8.20
2018-12-13T11:28:52.343Z,7.80
2018-12-13T11:29:52.310Z,6.70
2018-12-13T11:30:52.275Z,7.20
2018-12-13T11:31:52.243Z,7.70
2018-12-13T11:32:52.205Z,9.30
2018-12-13T11:33:52.176Z,9.40
2018-12-13T11:34:52.137Z,9.00
2018-12-13T11:35:52.103Z,7.80
2018-12-13T11:36:52.068Z,9.10
2018-12-13T11:37:52.034Z,7.90
2018-12-13T11:38:51.999Z,8.30
2018-12-13T11:39:51.965Z,10.30
2018-12-13T11:40:51.930Z,9.00
2018-12-13T11:41:51.896Z,8.80
2018-12-13T11:42:51.863Z,6.90
2018-12-13T11:43:51.830Z,6.60
2018-12-13T11:44:51.793Z,7.80
2018-12-13T11:45:51.756Z,7.60
2018-12-13T11:46:51.723Z,7.30
2018-12-13T11:47:51.690Z,8.50
2018-12-13T11:48:51.654Z,8.90
2018-12-13T11:49:51.619Z,6.80
2018-12-13T11:50:51.585Z,7.70
2018-12-13T11:51:51.553Z,7.70
2018-12-13T11:52:51.516Z,6.90
2018-12-13T11:53:51.481Z,7.50
2018-12-13T11:54:51.447Z,8.10
2018-12-13T11:55:51.411Z,9.50
2018-12-13T11:56:51.377Z,7.80
2018-12-13T11:57:51.342Z,9.70
2018-12-13T11:58:51.319Z,7.10
2018-12-13T11:59:51.273Z,7.20
2018-12-13T12:00:51.239Z,6.60
2018-12-13T12:01:51.205Z,6.90
2018-12-13T12:02:51.170Z,6.40
2018-12-13T12:03:51.135Z,7.00
2018-12-13T12:04:51.104Z,7.10
2018-12-13T12:05:51.065Z,7.60
2018-12-13T12:06:51.033Z,8.20
2018-12-13T12:07:50.999Z,7.40
2018-12-13T12:08:50.963Z,6.60
2018-12-13T12:09:50.927Z,8.20
2018-12-13T12:10:50.892Z,6.90
2018-12-13T12:11:50.861Z,7.30
2018-12-13T12:12:50.825Z,13.60
2018-12-13T12:13:50.789Z,16.90
2018-12-13T12:14:50.753Z,30.60
2018-12-13T12:15:50.719Z,31.30
2018-12-13T12:16:50.684Z,15.70
2018-12-13T12:17:50.649Z,22.70
2018-12-13T12:18:50.615Z,32.70
2018-12-13T12:19:50.580Z,19.10
2018-12-13T12:20:50.577Z,8.10
2018-12-13T12:21:50.511Z,9.60
2018-12-13T12:22:50.477Z,9.20
2018-12-13T12:23:50.442Z,8.40
2018-12-13T12:24:50.407Z,8.60
2018-12-13T12:25:50.372Z,9.30
2018-12-13T12:26:50.337Z,11.70
2018-12-13T12:27:50.303Z,12.30
2018-12-13T12:28:50.267Z,14.60
2018-12-13T12:29:50.236Z,15.30
2018-12-13T12:30:50.200Z,18.20
2018-12-13T12:31:50.166Z,12.90
2018-12-13T12:32:50.129Z,18.60
2018-12-13T12:33:50.096Z,24.60
2018-12-13T12:34:50.061Z,25.10
2018-12-13T12:35:50.027Z,16.60
2018-12-13T12:36:49.994Z,23.20
2018-12-13T12:37:49.956Z,37.90
2018-12-13T12:38:49.926Z,18.60
2018-12-13T12:39:49.948Z,18.10
2018-12-13T12:40:49.853Z,12.10
2018-12-13T12:41:49.819Z,18.40
2018-12-13T12:42:49.785Z,17.10
2018-12-13T12:43:49.751Z,20.50
2018-12-13T12:44:49.715Z,17.00
2018-12-13T12:45:49.682Z,23.10
2018-12-13T12:46:49.647Z,17.60
2018-12-13T12:47:49.615Z,35.10
2018-12-13T12:48:49.577Z,31.10
2018-12-13T12:49:49.543Z,33.20
2018-12-13T12:50:49.507Z,21.30
2018-12-13T12:51:49.473Z,15.40
2018-12-13T12:52:49.440Z,19.60
2018-12-13T12:53:49.404Z,21.50
2018-12-13T12:54:49.370Z,52.60
2018-12-13T12:55:49.335Z,36.30
2018-12-13T12:56:49.300Z,37.40
2018-12-13T12:57:49.266Z,31.30
2018-12-13T12:58:49.234Z,29.60
2018-12-13T12:59:49.197Z,16.40
2018-12-13T13:00:49.181Z,24.00
2018-12-13T13:01:49.127Z,20.50
2018-12-13T13:02:49.094Z,10.40
2018-12-13T13:03:49.060Z,34.90
2018-12-13T13:04:49.023Z,32.50